sensor_id;sensor_type;location;lat;lon;timestamp;temperature;humidity
29237;DHT22;16266;50.866;4.398;2023-04-12T00:01:45;8.80;99.90
29237;DHT22;16266;50.866;4.398;2023-04-12T00:04:11;8.80;99.90
29237;DHT22;16266;50.866;4.398;2023-04-12T00:06:38;8.80;99.90
29237;DHT22;16266;50.866;4.398;2023-04-12T00:09:04;8.80;99.90
29237;DHT22;16266;50.866;4.398;2023-04-12T00:11:30;8.80;99.90
29237;DHT22;16266;50.866;4.398;2023-04-12T00:13:56;8.90;99.90
29237;DHT22;16266;50.866;4.398;2023-04-12T00:16:22;8.80;99.90
29237;DHT22;16266;50.866;4.398;2023-04-12T00:18:49;8.80;99.90
29237;DHT22;16266;50.866;4.398;2023-04-12T00:21:16;8.80;99.90
29237;DHT22;16266;50.866;4.398;2023-04-12T00:23:47;8.80;99.90
29237;DHT22;16266;50.866;4.398;2023-04-12T00:26:14;8.90;99.90
29237;DHT22;16266;50.866;4.398;2023-04-12T00:28:41;8.80;99.90
29237;DHT22;16266;50.866;4.398;2023-04-12T00:31:07;8.80;99.90
29237;DHT22;16266;50.866;4.398;2023-04-12T00:33:33;8.80;99.90
29237;DHT22;16266;50.866;4.398;2023-04-12T00:35:59;8.80;99.90
29237;DHT22;16266;50.866;4.398;2023-04-12T00:38:25;8.80;99.90
29237;DHT22;16266;50.866;4.398;2023-04-12T00:40:51;8.80;99.90
29237;DHT22;16266;50.866;4.398;2023-04-12T00:43:16;8.80;99.90
29237;DHT22;16266;50.866;4.398;2023-04-12T00:45:46;8.80;99.90
29237;DHT22;16266;50.866;4.398;2023-04-12T00:48:12;8.80;99.90
29237;DHT22;16266;50.866;4.398;2023-04-12T00:50:39;8.70;99.90
29237;DHT22;16266;50.866;4.398;2023-04-12T00:53:12;8.80;99.90
29237;DHT22;16266;50.866;4.398;2023-04-12T00:55:43;8.80;99.90
29237;DHT22;16266;50.866;4.398;2023-04-12T00:58:09;8.80;99.90
29237;DHT22;16266;50.866;4.398;2023-04-12T01:00:34;8.80;99.90
29237;DHT22;16266;50.866;4.398;2023-04-12T01:03:00;8.80;99.90
29237;DHT22;16266;50.866;4.398;2023-04-12T01:05:28;8.70;99.90
29237;DHT22;16266;50.866;4.398;2023-04-12T01:10:45;8.80;99.90
29237;DHT22;16266;50.866;4.398;2023-04-12T01:13:40;8.80;99.90
29237;DHT22;16266;50.866;4.398;2023-04-12T01:16:27;8.80;99.90
29237;DHT22;16266;50.866;4.398;2023-04-12T01:18:59;8.80;99.90
29237;DHT22;16266;50.866;4.398;2023-04-12T01:22:10;8.70;99.90
29237;DHT22;16266;50.866;4.398;2023-04-12T01:29:38;8.80;99.90
29237;DHT22;16266;50.866;4.398;2023-04-12T01:32:05;8.70;99.90
29237;DHT22;16266;50.866;4.398;2023-04-12T01:34:34;8.70;99.90
29237;DHT22;16266;50.866;4.398;2023-04-12T01:37:02;8.80;99.90
29237;DHT22;16266;50.866;4.398;2023-04-12T01:39:32;8.80;99.90
29237;DHT22;16266;50.866;4.398;2023-04-12T01:41:58;8.70;99.90
29237;DHT22;16266;50.866;4.398;2023-04-12T01:44:23;8.80;99.90
29237;DHT22;16266;50.866;4.398;2023-04-12T01:46:50;8.80;99.90
29237;DHT22;16266;50.866;4.398;2023-04-12T01:49:17;8.80;99.90
29237;DHT22;16266;50.866;4.398;2023-04-12T01:54:43;8.80;99.90
29237;DHT22;16266;50.866;4.398;2023-04-12T01:57:14;8.90;99.90
29237;DHT22;16266;50.866;4.398;2023-04-12T01:59:42;8.80;99.90
29237;DHT22;16266;50.866;4.398;2023-04-12T02:02:10;8.90;99.90
29237;DHT22;16266;50.866;4.398;2023-04-12T02:04:36;8.90;99.90
29237;DHT22;16266;50.866;4.398;2023-04-12T02:07:02;8.90;99.90
29237;DHT22;16266;50.866;4.398;2023-04-12T02:09:28;9.00;99.90
29237;DHT22;16266;50.866;4.398;2023-04-12T02:11:54;9.10;99.90
29237;DHT22;16266;50.866;4.398;2023-04-12T02:14:21;9.00;99.90
29237;DHT22;16266;50.866;4.398;2023-04-12T02:16:46;9.10;99.90
29237;DHT22;16266;50.866;4.398;2023-04-12T02:19:13;9.00;99.90
29237;DHT22;16266;50.866;4.398;2023-04-12T02:21:40;9.00;99.90
29237;DHT22;16266;50.866;4.398;2023-04-12T02:24:06;9.00;99.90
29237;DHT22;16266;50.866;4.398;2023-04-12T02:26:32;9.10;99.90
29237;DHT22;16266;50.866;4.398;2023-04-12T02:28:58;9.10;99.90
29237;DHT22;16266;50.866;4.398;2023-04-12T02:31:23;9.10;99.90
29237;DHT22;16266;50.866;4.398;2023-04-12T02:33:49;9.20;99.90
29237;DHT22;16266;50.866;4.398;2023-04-12T02:36:15;9.20;99.90
29237;DHT22;16266;50.866;4.398;2023-04-12T02:38:40;9.20;99.90
29237;DHT22;16266;50.866;4.398;2023-04-12T02:41:06;9.10;99.90
29237;DHT22;16266;50.866;4.398;2023-04-12T02:43:32;9.10;99.90
29237;DHT22;16266;50.866;4.398;2023-04-12T02:45:58;9.20;99.90
29237;DHT22;16266;50.866;4.398;2023-04-12T02:48:24;9.20;99.90
29237;DHT22;16266;50.866;4.398;2023-04-12T02:50:50;9.20;99.90
29237;DHT22;16266;50.866;4.398;2023-04-12T02:53:16;9.20;99.90
29237;DHT22;16266;50.866;4.398;2023-04-12T02:55:42;9.20;99.90
29237;DHT22;16266;50.866;4.398;2023-04-12T02:58:09;9.20;99.90
29237;DHT22;16266;50.866;4.398;2023-04-12T03:00:34;9.20;99.90
29237;DHT22;16266;50.866;4.398;2023-04-12T03:03:00;9.20;99.90
29237;DHT22;16266;50.866;4.398;2023-04-12T03:05:28;9.20;99.90
29237;DHT22;16266;50.866;4.398;2023-04-12T03:07:54;9.30;99.90
29237;DHT22;16266;50.866;4.398;2023-04-12T03:10:20;9.30;99.90
29237;DHT22;16266;50.866;4.398;2023-04-12T03:12:45;9.30;99.90
29237;DHT22;16266;50.866;4.398;2023-04-12T03:15:11;9.30;99.90
29237;DHT22;16266;50.866;4.398;2023-04-12T03:17:37;9.30;99.90
29237;DHT22;16266;50.866;4.398;2023-04-12T03:20:06;9.30;99.90
29237;DHT22;16266;50.866;4.398;2023-04-12T03:22:35;9.30;99.90
29237;DHT22;16266;50.866;4.398;2023-04-12T03:25:03;9.30;99.90
29237;DHT22;16266;50.866;4.398;2023-04-12T03:27:28;9.30;99.90
29237;DHT22;16266;50.866;4.398;2023-04-12T03:29:54;9.40;99.90
29237;DHT22;16266;50.866;4.398;2023-04-12T03:32:20;9.40;99.90
29237;DHT22;16266;50.866;4.398;2023-04-12T03:34:46;9.40;99.90
29237;DHT22;16266;50.866;4.398;2023-04-12T03:37:12;9.40;99.90
29237;DHT22;16266;50.866;4.398;2023-04-12T03:39:38;9.40;99.90
29237;DHT22;16266;50.866;4.398;2023-04-12T03:42:03;9.40;99.90
29237;DHT22;16266;50.866;4.398;2023-04-12T03:44:29;9.50;99.90
29237;DHT22;16266;50.866;4.398;2023-04-12T03:46:55;9.40;99.90
29237;DHT22;16266;50.866;4.398;2023-04-12T03:49:20;9.40;99.90
29237;DHT22;16266;50.866;4.398;2023-04-12T03:51:46;9.40;99.90
29237;DHT22;16266;50.866;4.398;2023-04-12T03:54:15;9.50;99.90
29237;DHT22;16266;50.866;4.398;2023-04-12T03:56:41;9.50;99.90
29237;DHT22;16266;50.866;4.398;2023-04-12T03:59:07;9.50;99.90
29237;DHT22;16266;50.866;4.398;2023-04-12T04:01:33;9.40;99.90
29237;DHT22;16266;50.866;4.398;2023-04-12T04:03:59;9.50;99.90
29237;DHT22;16266;50.866;4.398;2023-04-12T04:06:25;9.50;99.90
29237;DHT22;16266;50.866;4.398;2023-04-12T04:08:51;9.40;99.90
29237;DHT22;16266;50.866;4.398;2023-04-12T04:11:17;9.50;99.90
29237;DHT22;16266;50.866;4.398;2023-04-12T04:13:42;9.40;99.90
29237;DHT22;16266;50.866;4.398;2023-04-12T04:16:08;9.40;99.90
29237;DHT22;16266;50.866;4.398;2023-04-12T04:18:35;9.50;99.90
29237;DHT22;16266;50.866;4.398;2023-04-12T04:21:01;9.40;99.90
29237;DHT22;16266;50.866;4.398;2023-04-12T04:23:27;9.50;99.90
29237;DHT22;16266;50.866;4.398;2023-04-12T04:25:55;9.50;99.90
29237;DHT22;16266;50.866;4.398;2023-04-12T04:28:20;9.50;99.90
29237;DHT22;16266;50.866;4.398;2023-04-12T04:30:46;9.60;99.90
29237;DHT22;16266;50.866;4.398;2023-04-12T04:33:12;9.70;99.90
29237;DHT22;16266;50.866;4.398;2023-04-12T04:35:38;9.70;99.90
29237;DHT22;16266;50.866;4.398;2023-04-12T04:38:04;9.60;99.90
29237;DHT22;16266;50.866;4.398;2023-04-12T04:40:31;9.60;99.90
29237;DHT22;16266;50.866;4.398;2023-04-12T04:42:56;9.60;99.90
29237;DHT22;16266;50.866;4.398;2023-04-12T04:45:24;9.60;99.90
29237;DHT22;16266;50.866;4.398;2023-04-12T04:47:51;9.70;99.90
29237;DHT22;16266;50.866;4.398;2023-04-12T04:50:19;9.70;99.90
29237;DHT22;16266;50.866;4.398;2023-04-12T04:52:46;9.70;99.90
29237;DHT22;16266;50.866;4.398;2023-04-12T04:55:13;9.70;99.90
29237;DHT22;16266;50.866;4.398;2023-04-12T04:57:39;9.70;99.90
29237;DHT22;16266;50.866;4.398;2023-04-12T05:00:06;9.70;99.90
29237;DHT22;16266;50.866;4.398;2023-04-12T05:02:36;9.80;99.90
29237;DHT22;16266;50.866;4.398;2023-04-12T05:05:05;9.80;99.90
29237;DHT22;16266;50.866;4.398;2023-04-12T05:07:31;9.90;99.90
29237;DHT22;16266;50.866;4.398;2023-04-12T05:09:57;9.80;99.90
29237;DHT22;16266;50.866;4.398;2023-04-12T05:12:22;9.80;99.90
29237;DHT22;16266;50.866;4.398;2023-04-12T05:14:48;9.70;99.90
29237;DHT22;16266;50.866;4.398;2023-04-12T05:17:14;9.80;99.90
29237;DHT22;16266;50.866;4.398;2023-04-12T05:19:40;9.80;99.90
29237;DHT22;16266;50.866;4.398;2023-04-12T05:22:05;9.80;99.90
29237;DHT22;16266;50.866;4.398;2023-04-12T05:24:31;9.80;99.90
29237;DHT22;16266;50.866;4.398;2023-04-12T05:26:57;9.80;99.90
29237;DHT22;16266;50.866;4.398;2023-04-12T05:29:23;9.80;99.90
29237;DHT22;16266;50.866;4.398;2023-04-12T05:31:48;9.90;99.90
29237;DHT22;16266;50.866;4.398;2023-04-12T05:34:14;10.00;99.90
29237;DHT22;16266;50.866;4.398;2023-04-12T05:36:41;10.00;99.90
29237;DHT22;16266;50.866;4.398;2023-04-12T05:39:06;10.10;99.90
29237;DHT22;16266;50.866;4.398;2023-04-12T05:41:32;10.10;99.90
29237;DHT22;16266;50.866;4.398;2023-04-12T05:43:58;10.20;99.90
29237;DHT22;16266;50.866;4.398;2023-04-12T05:46:23;10.30;99.90
29237;DHT22;16266;50.866;4.398;2023-04-12T05:48:49;10.30;99.90
29237;DHT22;16266;50.866;4.398;2023-04-12T05:51:15;10.30;99.90
29237;DHT22;16266;50.866;4.398;2023-04-12T05:53:40;10.40;99.90
29237;DHT22;16266;50.866;4.398;2023-04-12T05:56:06;10.40;99.90
29237;DHT22;16266;50.866;4.398;2023-04-12T05:58:32;10.40;99.90
29237;DHT22;16266;50.866;4.398;2023-04-12T06:00:58;10.40;99.90
29237;DHT22;16266;50.866;4.398;2023-04-12T06:03:24;10.40;99.90
29237;DHT22;16266;50.866;4.398;2023-04-12T06:05:49;10.40;99.90
29237;DHT22;16266;50.866;4.398;2023-04-12T06:08:17;10.50;99.90
29237;DHT22;16266;50.866;4.398;2023-04-12T06:10:42;10.50;99.90
29237;DHT22;16266;50.866;4.398;2023-04-12T06:13:08;10.50;99.90
29237;DHT22;16266;50.866;4.398;2023-04-12T06:15:34;10.60;99.90
29237;DHT22;16266;50.866;4.398;2023-04-12T06:18:00;10.60;99.90
29237;DHT22;16266;50.866;4.398;2023-04-12T06:20:26;10.60;99.90
29237;DHT22;16266;50.866;4.398;2023-04-12T06:22:52;10.50;99.90
29237;DHT22;16266;50.866;4.398;2023-04-12T06:25:17;10.50;99.90
29237;DHT22;16266;50.866;4.398;2023-04-12T06:27:43;10.40;99.90
29237;DHT22;16266;50.866;4.398;2023-04-12T06:30:09;10.40;99.90
29237;DHT22;16266;50.866;4.398;2023-04-12T06:32:35;10.30;99.90
29237;DHT22;16266;50.866;4.398;2023-04-12T06:35:03;10.20;99.90
29237;DHT22;16266;50.866;4.398;2023-04-12T06:37:29;10.30;99.90
29237;DHT22;16266;50.866;4.398;2023-04-12T06:39:55;10.30;99.90
29237;DHT22;16266;50.866;4.398;2023-04-12T06:42:20;10.40;99.90
29237;DHT22;16266;50.866;4.398;2023-04-12T06:44:46;10.40;99.90
29237;DHT22;16266;50.866;4.398;2023-04-12T06:47:12;10.50;99.90
29237;DHT22;16266;50.866;4.398;2023-04-12T06:49:38;10.50;99.90
29237;DHT22;16266;50.866;4.398;2023-04-12T06:52:03;10.50;99.90
29237;DHT22;16266;50.866;4.398;2023-04-12T06:54:29;10.50;99.90
29237;DHT22;16266;50.866;4.398;2023-04-12T06:56:54;10.60;99.90
29237;DHT22;16266;50.866;4.398;2023-04-12T06:59:21;10.60;99.90
29237;DHT22;16266;50.866;4.398;2023-04-12T07:01:47;10.60;99.90
29237;DHT22;16266;50.866;4.398;2023-04-12T07:04:13;10.60;99.90
29237;DHT22;16266;50.866;4.398;2023-04-12T07:06:38;10.60;99.90
29237;DHT22;16266;50.866;4.398;2023-04-12T07:09:04;10.70;99.90
29237;DHT22;16266;50.866;4.398;2023-04-12T07:11:30;10.70;99.90
29237;DHT22;16266;50.866;4.398;2023-04-12T07:13:56;10.60;99.90
29237;DHT22;16266;50.866;4.398;2023-04-12T07:16:24;10.70;99.90
29237;DHT22;16266;50.866;4.398;2023-04-12T07:18:50;10.90;99.90
29237;DHT22;16266;50.866;4.398;2023-04-12T07:21:15;11.10;99.90
29237;DHT22;16266;50.866;4.398;2023-04-12T07:23:42;11.10;99.90
29237;DHT22;16266;50.866;4.398;2023-04-12T07:26:09;11.30;99.90
29237;DHT22;16266;50.866;4.398;2023-04-12T07:28:35;11.50;99.90
29237;DHT22;16266;50.866;4.398;2023-04-12T07:31:04;11.50;99.90
29237;DHT22;16266;50.866;4.398;2023-04-12T07:33:30;11.60;99.90
29237;DHT22;16266;50.866;4.398;2023-04-12T07:35:56;11.70;99.90
29237;DHT22;16266;50.866;4.398;2023-04-12T07:38:22;11.80;99.90
29237;DHT22;16266;50.866;4.398;2023-04-12T07:40:47;11.80;99.90
29237;DHT22;16266;50.866;4.398;2023-04-12T07:43:15;12.10;99.90
29237;DHT22;16266;50.866;4.398;2023-04-12T07:45:40;12.40;99.90
29237;DHT22;16266;50.866;4.398;2023-04-12T07:48:06;12.70;99.90
29237;DHT22;16266;50.866;4.398;2023-04-12T07:50:32;12.70;99.90
29237;DHT22;16266;50.866;4.398;2023-04-12T07:53:20;12.80;99.90
29237;DHT22;16266;50.866;4.398;2023-04-12T07:55:47;13.00;99.90
29237;DHT22;16266;50.866;4.398;2023-04-12T07:58:17;13.00;99.90
29237;DHT22;16266;50.866;4.398;2023-04-12T08:00:43;13.00;99.90
29237;DHT22;16266;50.866;4.398;2023-04-12T08:03:13;13.20;99.90
29237;DHT22;16266;50.866;4.398;2023-04-12T08:05:40;13.10;99.90
29237;DHT22;16266;50.866;4.398;2023-04-12T08:08:06;13.10;99.90
29237;DHT22;16266;50.866;4.398;2023-04-12T08:10:35;12.90;99.90
29237;DHT22;16266;50.866;4.398;2023-04-12T08:13:02;13.20;99.90
29237;DHT22;16266;50.866;4.398;2023-04-12T08:15:28;13.70;99.90
29237;DHT22;16266;50.866;4.398;2023-04-12T08:17:53;15.20;99.90
29237;DHT22;16266;50.866;4.398;2023-04-12T08:20:19;16.50;99.90
29237;DHT22;16266;50.866;4.398;2023-04-12T08:22:45;17.60;99.90
29237;DHT22;16266;50.866;4.398;2023-04-12T08:25:11;17.90;99.90
29237;DHT22;16266;50.866;4.398;2023-04-12T08:27:40;18.20;99.90
29237;DHT22;16266;50.866;4.398;2023-04-12T08:30:07;18.60;99.90
29237;DHT22;16266;50.866;4.398;2023-04-12T08:32:33;18.50;99.90
29237;DHT22;16266;50.866;4.398;2023-04-12T08:34:59;18.50;99.90
29237;DHT22;16266;50.866;4.398;2023-04-12T08:37:25;18.70;99.90
29237;DHT22;16266;50.866;4.398;2023-04-12T08:39:51;18.80;99.90
29237;DHT22;16266;50.866;4.398;2023-04-12T08:42:17;19.70;99.90
29237;DHT22;16266;50.866;4.398;2023-04-12T08:44:43;21.20;99.90
29237;DHT22;16266;50.866;4.398;2023-04-12T08:47:10;22.90;99.90
29237;DHT22;16266;50.866;4.398;2023-04-12T08:49:36;23.30;99.90
29237;DHT22;16266;50.866;4.398;2023-04-12T08:52:06;22.70;99.90
29237;DHT22;16266;50.866;4.398;2023-04-12T08:54:33;22.50;99.90
29237;DHT22;16266;50.866;4.398;2023-04-12T08:57:02;22.80;99.90
29237;DHT22;16266;50.866;4.398;2023-04-12T08:59:30;22.80;99.90
29237;DHT22;16266;50.866;4.398;2023-04-12T09:01:56;23.60;99.90
29237;DHT22;16266;50.866;4.398;2023-04-12T09:04:23;23.90;99.90
29237;DHT22;16266;50.866;4.398;2023-04-12T09:06:49;23.70;99.80
29237;DHT22;16266;50.866;4.398;2023-04-12T09:09:15;23.20;99.90
29237;DHT22;16266;50.866;4.398;2023-04-12T09:11:41;22.50;99.90
29237;DHT22;16266;50.866;4.398;2023-04-12T09:14:23;22.40;99.90
29237;DHT22;16266;50.866;4.398;2023-04-12T09:16:50;21.90;99.90
29237;DHT22;16266;50.866;4.398;2023-04-12T09:19:22;21.60;99.90
29237;DHT22;16266;50.866;4.398;2023-04-12T09:21:55;21.50;99.90
29237;DHT22;16266;50.866;4.398;2023-04-12T09:24:21;20.70;99.90
29237;DHT22;16266;50.866;4.398;2023-04-12T09:27:10;19.60;99.90
29237;DHT22;16266;50.866;4.398;2023-04-12T09:29:35;19.20;99.90
29237;DHT22;16266;50.866;4.398;2023-04-12T09:32:06;18.70;99.90
29237;DHT22;16266;50.866;4.398;2023-04-12T09:34:33;18.30;99.90
29237;DHT22;16266;50.866;4.398;2023-04-12T09:37:12;18.20;99.90
29237;DHT22;16266;50.866;4.398;2023-04-12T09:39:38;17.90;99.90
29237;DHT22;16266;50.866;4.398;2023-04-12T09:42:08;17.80;99.90
29237;DHT22;16266;50.866;4.398;2023-04-12T09:44:34;18.20;99.90
29237;DHT22;16266;50.866;4.398;2023-04-12T09:47:01;18.10;99.90
29237;DHT22;16266;50.866;4.398;2023-04-12T09:49:37;17.60;99.90
29237;DHT22;16266;50.866;4.398;2023-04-12T09:52:07;17.30;99.90
29237;DHT22;16266;50.866;4.398;2023-04-12T09:54:43;16.70;99.90
29237;DHT22;16266;50.866;4.398;2023-04-12T09:57:09;16.60;99.90
29237;DHT22;16266;50.866;4.398;2023-04-12T09:59:37;16.10;99.90
29237;DHT22;16266;50.866;4.398;2023-04-12T10:02:17;16.00;99.90
29237;DHT22;16266;50.866;4.398;2023-04-12T10:04:44;16.30;99.90
29237;DHT22;16266;50.866;4.398;2023-04-12T10:07:10;16.40;99.90
29237;DHT22;16266;50.866;4.398;2023-04-12T10:09:37;16.60;99.90
29237;DHT22;16266;50.866;4.398;2023-04-12T10:12:04;17.40;99.90
29237;DHT22;16266;50.866;4.398;2023-04-12T10:14:30;17.70;99.90
29237;DHT22;16266;50.866;4.398;2023-04-12T10:16:58;17.80;99.90
29237;DHT22;16266;50.866;4.398;2023-04-12T10:19:29;17.60;99.90
29237;DHT22;16266;50.866;4.398;2023-04-12T10:21:56;17.30;99.90
29237;DHT22;16266;50.866;4.398;2023-04-12T10:24:25;16.90;99.90
29237;DHT22;16266;50.866;4.398;2023-04-12T10:26:55;16.00;99.90
29237;DHT22;16266;50.866;4.398;2023-04-12T10:29:25;15.20;99.90
29237;DHT22;16266;50.866;4.398;2023-04-12T10:31:58;14.20;99.90
29237;DHT22;16266;50.866;4.398;2023-04-12T10:34:42;13.90;99.90
29237;DHT22;16266;50.866;4.398;2023-04-12T10:37:08;15.00;99.90
29237;DHT22;16266;50.866;4.398;2023-04-12T10:39:41;16.40;99.90
29237;DHT22;16266;50.866;4.398;2023-04-12T10:42:18;16.60;99.90
29237;DHT22;16266;50.866;4.398;2023-04-12T10:44:44;16.80;99.90
29237;DHT22;16266;50.866;4.398;2023-04-12T10:47:10;17.30;99.90
29237;DHT22;16266;50.866;4.398;2023-04-12T10:49:37;18.00;99.90
29237;DHT22;16266;50.866;4.398;2023-04-12T10:52:11;18.50;99.90
29237;DHT22;16266;50.866;4.398;2023-04-12T10:54:38;19.20;99.90
29237;DHT22;16266;50.866;4.398;2023-04-12T10:57:04;19.80;99.90
29237;DHT22;16266;50.866;4.398;2023-04-12T10:59:52;21.60;99.90
29237;DHT22;16266;50.866;4.398;2023-04-12T11:02:20;23.20;99.90
29237;DHT22;16266;50.866;4.398;2023-04-12T11:05:09;24.10;98.60
29237;DHT22;16266;50.866;4.398;2023-04-12T11:07:39;22.40;96.80
29237;DHT22;16266;50.866;4.398;2023-04-12T11:10:12;22.20;99.90
29237;DHT22;16266;50.866;4.398;2023-04-12T11:12:40;22.20;97.80
29237;DHT22;16266;50.866;4.398;2023-04-12T11:15:10;21.80;96.90
29237;DHT22;16266;50.866;4.398;2023-04-12T11:17:35;21.50;96.80
29237;DHT22;16266;50.866;4.398;2023-04-12T11:20:01;20.60;97.80
29237;DHT22;16266;50.866;4.398;2023-04-12T11:22:30;20.70;99.90
29237;DHT22;16266;50.866;4.398;2023-04-12T11:25:00;21.10;98.20
29237;DHT22;16266;50.866;4.398;2023-04-12T11:27:27;22.70;95.80
29237;DHT22;16266;50.866;4.398;2023-04-12T11:29:55;25.40;92.80
29237;DHT22;16266;50.866;4.398;2023-04-12T11:32:22;26.50;87.30
29237;DHT22;16266;50.866;4.398;2023-04-12T11:34:48;27.00;83.60
29237;DHT22;16266;50.866;4.398;2023-04-12T11:37:17;26.80;76.80
29237;DHT22;16266;50.866;4.398;2023-04-12T11:39:44;27.20;78.00
29237;DHT22;16266;50.866;4.398;2023-04-12T11:42:15;26.40;68.50
29237;DHT22;16266;50.866;4.398;2023-04-12T11:44:42;24.10;90.40
29237;DHT22;16266;50.866;4.398;2023-04-12T11:47:19;21.10;99.90
29237;DHT22;16266;50.866;4.398;2023-04-12T11:49:48;18.30;99.90
29237;DHT22;16266;50.866;4.398;2023-04-12T11:52:14;16.90;99.90
29237;DHT22;16266;50.866;4.398;2023-04-12T11:54:42;15.40;99.90
29237;DHT22;16266;50.866;4.398;2023-04-12T11:57:10;14.20;99.90
29237;DHT22;16266;50.866;4.398;2023-04-12T11:59:36;13.00;99.90
29237;DHT22;16266;50.866;4.398;2023-04-12T12:02:02;12.40;99.90
29237;DHT22;16266;50.866;4.398;2023-04-12T12:04:29;11.80;99.90
29237;DHT22;16266;50.866;4.398;2023-04-12T12:06:58;11.40;99.90
29237;DHT22;16266;50.866;4.398;2023-04-12T12:09:24;11.10;99.90
29237;DHT22;16266;50.866;4.398;2023-04-12T12:11:52;11.00;99.90
29237;DHT22;16266;50.866;4.398;2023-04-12T12:14:19;11.20;99.90
29237;DHT22;16266;50.866;4.398;2023-04-12T12:16:55;11.20;99.90
29237;DHT22;16266;50.866;4.398;2023-04-12T12:19:37;11.60;99.90
29237;DHT22;16266;50.866;4.398;2023-04-12T12:22:16;12.20;99.90
29237;DHT22;16266;50.866;4.398;2023-04-12T12:24:57;12.70;99.90
29237;DHT22;16266;50.866;4.398;2023-04-12T12:27:34;13.20;99.90
29237;DHT22;16266;50.866;4.398;2023-04-12T12:30:02;13.20;99.90
29237;DHT22;16266;50.866;4.398;2023-04-12T12:32:37;13.20;99.90
29237;DHT22;16266;50.866;4.398;2023-04-12T12:35:08;13.20;99.90
29237;DHT22;16266;50.866;4.398;2023-04-12T12:37:34;13.50;99.90
29237;DHT22;16266;50.866;4.398;2023-04-12T12:40:10;13.80;99.90
29237;DHT22;16266;50.866;4.398;2023-04-12T12:45:15;14.00;99.90
29237;DHT22;16266;50.866;4.398;2023-04-12T12:47:59;14.00;99.90
29237;DHT22;16266;50.866;4.398;2023-04-12T12:50:29;14.40;99.90
29237;DHT22;16266;50.866;4.398;2023-04-12T12:52:55;14.70;99.90
29237;DHT22;16266;50.866;4.398;2023-04-12T12:55:22;14.80;99.90
29237;DHT22;16266;50.866;4.398;2023-04-12T12:57:52;14.90;99.90
29237;DHT22;16266;50.866;4.398;2023-04-12T13:00:20;15.10;99.90
29237;DHT22;16266;50.866;4.398;2023-04-12T13:02:46;15.40;99.90
29237;DHT22;16266;50.866;4.398;2023-04-12T13:05:13;15.40;99.90
29237;DHT22;16266;50.866;4.398;2023-04-12T13:07:38;15.30;99.90
29237;DHT22;16266;50.866;4.398;2023-04-12T13:10:04;15.50;99.90
29237;DHT22;16266;50.866;4.398;2023-04-12T13:12:30;15.80;99.90
29237;DHT22;16266;50.866;4.398;2023-04-12T13:14:57;16.30;99.90
29237;DHT22;16266;50.866;4.398;2023-04-12T13:17:25;17.50;99.90
29237;DHT22;16266;50.866;4.398;2023-04-12T13:19:51;17.30;99.90
29237;DHT22;16266;50.866;4.398;2023-04-12T13:22:16;17.70;99.90
29237;DHT22;16266;50.866;4.398;2023-04-12T13:24:42;17.10;99.90
29237;DHT22;16266;50.866;4.398;2023-04-12T13:27:08;16.20;99.90
29237;DHT22;16266;50.866;4.398;2023-04-12T13:29:35;15.60;99.90
29237;DHT22;16266;50.866;4.398;2023-04-12T13:32:01;15.00;99.90
29237;DHT22;16266;50.866;4.398;2023-04-12T13:34:27;14.60;99.90
29237;DHT22;16266;50.866;4.398;2023-04-12T13:36:52;14.30;99.90
29237;DHT22;16266;50.866;4.398;2023-04-12T13:39:18;14.20;99.90
29237;DHT22;16266;50.866;4.398;2023-04-12T13:41:44;14.20;99.90
29237;DHT22;16266;50.866;4.398;2023-04-12T13:44:10;14.10;99.90
29237;DHT22;16266;50.866;4.398;2023-04-12T13:46:36;13.80;99.90
29237;DHT22;16266;50.866;4.398;2023-04-12T13:49:01;13.60;99.90
29237;DHT22;16266;50.866;4.398;2023-04-12T13:51:27;13.30;99.90
29237;DHT22;16266;50.866;4.398;2023-04-12T13:53:54;12.90;99.90
29237;DHT22;16266;50.866;4.398;2023-04-12T13:56:20;12.10;99.90
29237;DHT22;16266;50.866;4.398;2023-04-12T13:58:46;11.50;99.90
29237;DHT22;16266;50.866;4.398;2023-04-12T14:01:12;10.90;99.90
29237;DHT22;16266;50.866;4.398;2023-04-12T14:03:38;10.50;99.90
29237;DHT22;16266;50.866;4.398;2023-04-12T14:06:05;10.40;99.90
29237;DHT22;16266;50.866;4.398;2023-04-12T14:08:31;10.20;99.90
29237;DHT22;16266;50.866;4.398;2023-04-12T14:10:57;10.40;99.90
29237;DHT22;16266;50.866;4.398;2023-04-12T14:13:24;10.80;99.90
29237;DHT22;16266;50.866;4.398;2023-04-12T14:15:50;11.00;99.90
29237;DHT22;16266;50.866;4.398;2023-04-12T14:18:16;11.10;99.90
29237;DHT22;16266;50.866;4.398;2023-04-12T14:20:42;11.20;99.90
29237;DHT22;16266;50.866;4.398;2023-04-12T14:23:10;11.20;99.90
29237;DHT22;16266;50.866;4.398;2023-04-12T14:25:38;11.60;99.90
29237;DHT22;16266;50.866;4.398;2023-04-12T14:28:04;12.20;99.90
29237;DHT22;16266;50.866;4.398;2023-04-12T14:30:29;12.60;99.90
29237;DHT22;16266;50.866;4.398;2023-04-12T14:32:55;12.90;99.90
29237;DHT22;16266;50.866;4.398;2023-04-12T14:35:21;13.10;99.90
29237;DHT22;16266;50.866;4.398;2023-04-12T14:37:47;13.20;99.90
29237;DHT22;16266;50.866;4.398;2023-04-12T14:40:12;13.10;99.90
29237;DHT22;16266;50.866;4.398;2023-04-12T14:42:39;12.90;99.90
29237;DHT22;16266;50.866;4.398;2023-04-12T14:45:05;12.60;99.90
29237;DHT22;16266;50.866;4.398;2023-04-12T14:47:32;12.50;99.90
29237;DHT22;16266;50.866;4.398;2023-04-12T14:49:58;12.60;99.90
29237;DHT22;16266;50.866;4.398;2023-04-12T14:52:24;12.50;99.90
29237;DHT22;16266;50.866;4.398;2023-04-12T14:54:50;12.30;99.90
29237;DHT22;16266;50.866;4.398;2023-04-12T14:57:16;12.40;99.90
29237;DHT22;16266;50.866;4.398;2023-04-12T14:59:42;12.30;99.90
29237;DHT22;16266;50.866;4.398;2023-04-12T15:02:08;12.50;99.90
29237;DHT22;16266;50.866;4.398;2023-04-12T15:04:33;12.70;99.90
29237;DHT22;16266;50.866;4.398;2023-04-12T15:06:59;13.00;99.90
29237;DHT22;16266;50.866;4.398;2023-04-12T15:09:25;12.90;99.90
29237;DHT22;16266;50.866;4.398;2023-04-12T15:11:51;13.00;99.90
29237;DHT22;16266;50.866;4.398;2023-04-12T15:14:25;13.00;99.90
29237;DHT22;16266;50.866;4.398;2023-04-12T15:16:52;13.10;99.90
29237;DHT22;16266;50.866;4.398;2023-04-12T15:19:19;13.30;99.90
29237;DHT22;16266;50.866;4.398;2023-04-12T15:21:47;13.40;99.90
29237;DHT22;16266;50.866;4.398;2023-04-12T15:24:16;13.30;99.90
29237;DHT22;16266;50.866;4.398;2023-04-12T15:26:42;13.20;99.90
29237;DHT22;16266;50.866;4.398;2023-04-12T15:29:07;13.20;99.90
29237;DHT22;16266;50.866;4.398;2023-04-12T15:31:33;13.10;99.90
29237;DHT22;16266;50.866;4.398;2023-04-12T15:33:59;13.10;99.90
29237;DHT22;16266;50.866;4.398;2023-04-12T15:36:25;13.10;99.90
29237;DHT22;16266;50.866;4.398;2023-04-12T15:38:58;13.20;99.90
29237;DHT22;16266;50.866;4.398;2023-04-12T15:41:24;13.20;99.90
29237;DHT22;16266;50.866;4.398;2023-04-12T15:43:49;13.30;99.90
29237;DHT22;16266;50.866;4.398;2023-04-12T15:46:15;13.50;99.90
29237;DHT22;16266;50.866;4.398;2023-04-12T15:48:41;13.60;99.90
29237;DHT22;16266;50.866;4.398;2023-04-12T15:51:07;13.60;99.90